METAR Data
IDs: Format: Raw Decoded Include TAF

Data at: 1214 UTC 16 Jul 2019

KLAM 161155Z AUTO 24006KT 10SM 19/08 A3027 RMK AO2 T01900077 10226 20190
KLAM 161135Z AUTO 30003KT 10SM 19/08 A3027 RMK AO2 T01910075
KLAM 161115Z AUTO 33004KT 10SM 19/08 A3027 RMK AO2 T01920075
KLAM 161055Z AUTO 00000KT 10SM 19/08 A3026 RMK AO2 T01920078
KLAM 161035Z AUTO 00000KT 10SM 20/08 A3026 RMK AO2 T01970077
KLAM 161015Z AUTO 00000KT 10SM 20/08 A3026 RMK AO2 T02000075
KLAM 160955Z AUTO 00000KT 10SM 20/07 A3026 RMK AO2 T02020072
KLAM 160935Z AUTO 03004KT 10SM 21/07 A3026 RMK AO2 T02050072
KLAM 160915Z AUTO 03003KT 10SM 21/07 A3026 RMK AO2 T02050072
KLAM 160855Z AUTO 02005KT 10SM 21/07 A3026 RMK AO2 T02080072
KLAM 160835Z AUTO 32003KT 10SM 21/07 A3027 RMK AO2 T02100071
KLAM 160815Z AUTO 03004KT 10SM 21/07 A3028 RMK AO2 T02080069
KLAM 160755Z AUTO 21009KT 10SM 21/07 A3027 RMK AO2 T02120071
KLAM 160735Z AUTO 21008KT 10SM 22/07 A3027 RMK AO2 T02150070
KLAM 160715Z AUTO 21008KT 10SM 22/07 A3027 RMK AO2 T02200069
KLAM 160655Z AUTO 20008KT 10SM 22/06 A3027 RMK AO2 T02210064
KLAM 160635Z AUTO 20007KT 10SM 23/06 A3027 RMK AO2 T02260058
KLAM 160615Z AUTO 21007KT 10SM 22/07 A3027 RMK AO2 T02160069
KLAM 160555Z AUTO 21006KT 10SM 22/07 A3027 RMK AO2 T02210065 10292 20215 402980153
KLAM 160535Z AUTO 00000KT 10SM 22/07 A3027 RMK AO2 T02220068
KLAM 160515Z AUTO 15005KT 10SM 22/07 A3027 RMK AO2 T02230068
KLAM 160455Z AUTO 23007KT 10SM 24/06 A3026 RMK AO2 T02350061
KLAM 160435Z AUTO 23012KT 10SM 24/06 A3026 RMK AO2 T02370059
KLAM 160415Z AUTO 24010KT 10SM 24/06 A3026 RMK AO2 T02370061
KLAM 160355Z AUTO 22011KT 10SM 24/06 A3026 RMK AO2 T02370063
KLAM 160335Z AUTO 21018G24KT 10SM DZ 24/06 A3025 RMK AO2 T02400057
KLAM 160315Z AUTO 24014G18KT 10SM 24/07 A3024 RMK AO2 T02350066
KLAM 160255Z AUTO 24013KT 10SM 24/07 A3023 RMK AO2 T02370069
KLAM 160235Z AUTO 27015G20KT 220V310 10SM 23/07 A3023 RMK AO2 T02340070
KLAM 160215Z AUTO 24014G23KT 10SM 23/08 A3024 RMK AO2 T02300080
KLAM 160155Z AUTO 24014G25KT 10SM 22/09 A3023 RMK AO2 T02220091
KLAM 160135Z AUTO 24017G25KT 10SM 23/09 A3023 RMK AO2 T02260093
KLAM 160115Z AUTO 24022G30KT 10SM 23/10 A3023 RMK AO2 T02260097
KLAM 160055Z AUTO 22019G23KT 10SM 26/07 A3021 RMK AO2 T02620070
KLAM 160035Z AUTO 12004KT 10SM 29/05 A3021 RMK AO2 T02850050
KLAM 160015Z AUTO 11004KT 10SM 29/05 A3021 RMK AO2 T02870046
KLAM 152355Z AUTO 07003KT 10SM 29/05 A3021 RMK AO2 T02940048 10298 20243
KLAM 152335Z AUTO 09004KT 10SM 29/05 A3021 RMK AO2 T02900053
KLAM 152315Z AUTO 10004KT 10SM 30/06 A3022 RMK AO2 T02980059
KLAM 152255Z AUTO 00000KT 10SM 28/06 A3023 RMK AO2 T02830062
KLAM 152235Z AUTO 14005KT 10SM 28/07 A3023 RMK AO2 T02800065
KLAM 152215Z AUTO 20006KT 10SM 28/07 A3024 RMK AO2 T02840066
KLAM 152155Z AUTO 11003KT 10SM 29/06 A3025 RMK AO2 T02900060
KLAM 152135Z AUTO 12005KT 10SM 29/06 A3025 RMK AO2 T02870055
KLAM 152115Z AUTO 15007KT 10SM 28/07 A3026 RMK AO2 T02830071
KLAM 152055Z AUTO 21008KT 180V240 10SM 27/10 A3027 RMK AO2 T02740104
KLAM 152035Z AUTO 18005KT 10SM 27/09 A3029 RMK AO2 T02700085
KLAM 152015Z AUTO 04007G14KT 10SM 28/05 A3028 RMK AO2 T02750047
KLAM 151955Z AUTO 05016G23KT 10SM 29/06 A3028 RMK AO2 T02910061
KLAM 151935Z AUTO 06005KT 10SM 28/07 A3029 RMK AO2 T02800070
KLAM 151910Z AUTO 36006KT 360V060 10SM 28/08 A3031 RMK AO2 T02770083
KLAM 151855Z AUTO 08004KT 10SM 27/09 A3031 RMK AO2 T02700087
KLAM 151835Z AUTO 06005KT 10SM 26/10 A3031 RMK AO2 T02610099
KLAM 151815Z AUTO 05008KT 040V110 10SM 26/10 A3032 RMK AO2 T02590101
KLAM 151755Z AUTO 00000KT 10SM 24/09 A3033 RMK AO2 T02440090 10245 20153
KLAM 151735Z AUTO 06006KT 10SM 24/09 A3033 RMK AO2 T02410093
KLAM 151715Z AUTO 06006KT 10SM 24/09 A3033 RMK AO2 T02360093
KLAM 151655Z AUTO 06008G15KT 010V080 10SM 23/10 A3033 RMK AO2 T02280100
KLAM 151635Z AUTO 33004KT 10SM 22/11 A3034 RMK AO2 T02190105
KLAM 151615Z AUTO 05003KT 10SM 21/11 A3034 RMK AO2 T02140113
KLAM 151555Z AUTO 05007KT 040V130 10SM 22/11 A3034 RMK AO2 T02150109
KLAM 151535Z AUTO 04004KT 10SM 21/10 A3034 RMK AO2 T02110103
KLAM 151515Z AUTO 03006KT 10SM 20/10 A3035 RMK AO2 T02020104
KLAM 151455Z AUTO 02003KT 10SM 20/10 A3035 RMK AO2 T01950101
KLAM 151435Z AUTO 03005KT 10SM 19/11 A3036 RMK AO2 T01930106
KLAM 151415Z AUTO 02006KT 10SM 18/10 A3037 RMK AO2 T01840101
KLAM 151355Z AUTO 02005KT 10SM 18/11 A3036 RMK AO2 T01770105
KLAM 151335Z AUTO 03005KT 10SM 17/10 A3036 RMK AO2 T01690104
KLAM 151315Z AUTO 01004KT 10SM 16/10 A3037 RMK AO2 T01620101
KLAM 151255Z AUTO 03005KT 10SM 16/10 A3036 RMK AO2 T01600100
KLAM 151235Z AUTO 03004KT 10SM 16/10 A3035 RMK AO2 T01570099
KLAM 151215Z AUTO 34003KT 10SM 15/10 A3035 RMK AO2 T01540098
KLAM 151155Z AUTO 03003KT 10SM 16/10 A3035 RMK AO2 70012 T01560100 10190 20155
KLAM 151135Z AUTO 02003KT 10SM 16/10 A3035 RMK AO2 T01570097
KLAM 151115Z AUTO 00000KT 10SM 16/10 A3035 RMK AO2 T01580098
KLAM 151055Z AUTO 00000KT 10SM 16/10 A3035 RMK AO2 T01600101
KLAM 151035Z AUTO 00000KT 10SM 17/10 A3034 RMK AO2 T01670098
KLAM 151015Z AUTO 00000KT 10SM 17/10 A3034 RMK AO2 T01650101
KLAM 150955Z AUTO 36003KT 10SM 17/10 A3034 RMK AO2 T01660103
KLAM 150935Z AUTO 35003KT 10SM 17/11 A3034 RMK AO2 T01650105
KLAM 150915Z AUTO 34003KT 10SM 17/11 A3034 RMK AO2 T01660105
KLAM 150855Z AUTO 33005KT 10SM 16/11 A3034 RMK AO2 T01640106
KLAM 150835Z AUTO 31004KT 10SM 16/11 A3035 RMK AO2 T01610110
KLAM 150815Z AUTO 31003KT 10SM 16/12 A3035 RMK AO2 T01570123
KLAM 150755Z AUTO 05004KT 10SM 16/12 A3035 RMK AO2 T01630116
KLAM 150735Z AUTO 00000KT 10SM 19/10 A3035 RMK AO2 T01850098
KLAM 150715Z AUTO 00000KT 10SM 19/10 A3037 RMK AO2 T01890095
KLAM 150655Z AUTO 00000KT 10SM 19/10 A3037 RMK AO2 T01850099
KLAM 150635Z AUTO 29005KT 10SM 19/10 A3037 RMK AO2 T01850102
KLAM 150615Z AUTO 29008KT 230V310 10SM 18/11 A3037 RMK AO2 T01800108
KLAM 150555Z AUTO 30008KT 10SM 18/11 A3038 RMK AO2 60002 T01750113 10283 20162 402990162
KLAM 150535Z AUTO 30008KT 10SM 17/12 A3039 RMK AO2 T01680116
KLAM 150515Z AUTO 30012G15KT 10SM -RA 16/13 A3039 RMK AO2 T01630126
KLAM 150455Z AUTO 02003KT 10SM 17/13 A3040 RMK AO2 P0001 T01650126
KLAM 150435Z AUTO 33007KT 250V030 10SM -RA 16/13 A3043 RMK AO2 P0001 T01640127
KLAM 150415Z AUTO 34013G19KT 320V030 10SM -RA 17/13 A3043 RMK AO2 T01650126
KLAM 150355Z AUTO 04011G17KT 10SM -RA 18/12 A3043 RMK AO2 T01760122
KLAM 150335Z AUTO 05012G21KT 10SM -RA 18/12 A3042 RMK AO2 T01750124
KLAM 150315Z AUTO 06015G22KT 10SM 19/12 A3040 RMK AO2 T01920116
KLAM 150255Z AUTO 03010G18KT 320V050 10SM 20/10 A3038 RMK AO2 T02010101
KLAM 150235Z AUTO 02012G22KT 10SM -RA 20/10 A3035 RMK AO2 T02030102
KLAM 150215Z AUTO 05014G23KT 330V060 10SM 22/09 A3033 RMK AO2 T02220089
KLAM 150155Z AUTO 00000KT 10SM 26/04 A3030 RMK AO2 T02600044
KLAM 150135Z AUTO 30008KT 10SM 26/06 A3029 RMK AO2 T02550061
KLAM 150115Z AUTO 30010KT 10SM 26/07 A3029 RMK AO2 T02560069
KLAM 150055Z AUTO 29007KT 230V310 10SM 26/08 A3029 RMK AO2 T02620076
KLAM 150035Z AUTO 22005KT 10SM 27/07 A3029 RMK AO2 T02670067
KLAM 150015Z AUTO 21006KT 10SM 27/07 A3028 RMK AO2 T02720070